Saturday, September 22, 2018, 9:06 AM EDT
Back to Local

KBAF, Westfield Barnes Municipal

Location: Westfield, MA, United States Lat: 42.167
Local Time: 9:06 AM EDT (13:06 GMT) Lon: -72.717
Time Zone: US/Eastern Elev: 272 ft

Show me the last for .
Show Decoded

2018-09-22 08:53 METAR KBAF 221253Z 32013G24KT 10SM CLR 17/09 A3006 RMK AO2 PK WND 33026/1154
                 SLP179 T01670094 =
2018-09-22 07:53 METAR KBAF 221153Z 33012G19KT 10SM CLR 18/11 A3005 RMK AO2 SLP173 60010 70016
                 T01780111 10200 20167 51047 =
2018-09-22 06:53 METAR KBAF 221053Z 03003KT 10SM CLR 17/13 A3001 RMK AO2 SLP161 T01720133 =
2018-09-22 05:53 METAR KBAF 220953Z AUTO 30011KT 10SM CLR 18/14 A2996 RMK AO2 WSHFT 0855 PRESRR
                 SLP144 T01830144 =
2018-09-22 05:15 METAR KBAF 220915Z AUTO 30010G24KT 10SM CLR 19/16 A2993 RMK AO2 WSHFT 0855
                 PRESRR T01940161 =
2018-09-22 04:53 METAR KBAF 220853Z AUTO 25011G17KT 210V270 10SM FEW037 19/19 A2990 RMK AO2
                 SLP125 60010 T01940194 55000 =
2018-09-22 03:53 METAR KBAF 220753Z AUTO 20007KT 10SM BKN090 BKN120 20/19 A2987 RMK AO2 RAE13
                 SLP113 P0000 T02000194 =
2018-09-22 03:29 METAR KBAF 220729Z AUTO 20010KT 10SM SCT016 SCT070 OVC085 20/19 A2987 RMK AO2
                 RAE13 P0000 T02000194 =
2018-09-22 03:02 METAR KBAF 220702Z AUTO 19009KT 9SM -RA BKN015 BKN025 OVC041 20/19 A2988 RMK AO2
                 P0000 T02000194 =
2018-09-22 02:53 METAR KBAF 220653Z AUTO 23004KT 9SM -RA SCT021 BKN039 OVC095 20/19 A2989 RMK AO2
                 SLP121 P0010 T02000194 =
2018-09-22 02:16 METAR KBAF 220616Z AUTO 19008KT 4SM RA BR SCT022 BKN050 OVC090 20/19 A2989 RMK
                 AO2 P0007 T02000194 =
2018-09-22 01:53 METAR KBAF 220553Z AUTO 18007KT 6SM RA BR BKN018 OVC025 20/19 A2990 RMK AO2
                 SLP125 P0006 60006 T02000194 10211 20189 55015 =
2018-09-22 00:53 METAR KBAF 220453Z AUTO 19013KT 10SM -RA OVC018 21/19 A2990 RMK AO2 RAB53 SLP124
                 P0000 T02110189 402110156 =
2018-09-21 23:53 METAR KBAF 220353Z AUTO 19008KT 10SM OVC016 21/18 A2993 RMK AO2 SLP136 T02060183
                 =
2018-09-21 22:53 METAR KBAF 220253Z AUTO 19012KT 10SM OVC017 20/18 A2995 RMK AO2 SLP140 T02000183
                 58008 =
2018-09-21 21:53 METAR KBAF 220153Z 17009KT 10SM OVC017 19/18 A2996 RMK AO2 SLP146 T01940178 =
2018-09-21 21:40 METAR KBAF 220140Z 17008KT 10SM OVC015 19/18 A2996 RMK AO2 T01940178 =
2018-09-21 21:14 METAR KBAF 220114Z 17007KT 10SM OVC014 19/17 A2997 RMK AO2 T01940172 =
2018-09-21 20:56 METAR KBAF 220056Z 10004KT 10SM OVC110 23/23 A2999 RMK SLP157 T02330233 =
2018-09-21 20:53 METAR KBAF 220053Z 17008KT 10SM OVC015 19/17 A2996 RMK AO2 SLP147 T01940172 =
2018-09-21 19:53 METAR KBAF 212353Z 19007KT 10SM OVC018 19/16 A2997 RMK AO2 SLP149 T01890161
                 10206 20189 58029 =
2018-09-21 18:53 METAR KBAF 212253Z 18011KT 10SM OVC024 19/16 A3000 RMK AO2 SLP160 T01890161 =
2018-09-21 17:53 METAR KBAF 212153Z 19009KT 10SM OVC025 19/16 A3003 RMK AO2 SLP169 T01890156 =
2018-09-21 16:53 METAR KBAF 212053Z 18010KT 10SM OVC028 19/16 A3006 RMK AO2 SLP178 T01940156
                 56025 =
2018-09-21 15:53 METAR KBAF 211953Z 18012KT 10SM BKN021 BKN030 OVC032 19/16 A3008 RMK AO2 SLP187
                 T01940156 =
2018-09-21 14:53 METAR KBAF 211853Z 18011G19KT 10SM BKN026 OVC034 20/16 A3010 RMK AO2 SLP191
                 T02000156 =
2018-09-21 13:53 METAR KBAF 211753Z 18010KT 10SM BKN021 BKN030 OVC032 20/16 A3013 RMK AO2 SLP202
                 T02000156 10200 20161 58029 =
2018-09-21 12:53 METAR KBAF 211653Z 17007KT 10SM BKN021 BKN030 OVC037 19/16 A3017 RMK AO2 SLP216
                 T01890161 =
2018-09-21 11:53 METAR KBAF 211553Z 19005KT 10SM FEW015 OVC022 18/16 A3020 RMK AO2 SLP226
                 T01780156 =
2018-09-21 10:53 METAR KBAF 211453Z 17008KT 10SM BKN016 OVC022 17/15 A3022 RMK AO2 SLP233
                 T01720150 58018 =
2018-09-21 10:30 METAR KBAF 211430Z 17009KT 10SM BKN016 BKN020 OVC034 17/15 A3022 RMK AO2
                 T01720150 =
2018-09-21 10:21 METAR KBAF 211421Z 16009G15KT 10SM FEW016 SCT022 OVC034 17/15 A3023 RMK AO2
                 T01720150 =
2018-09-21 09:53 METAR KBAF 211353Z 16007KT 10SM BKN021 BKN026 OVC034 16/14 A3024 RMK AO2 SLP241
                 T01610144 =

Support USWX by starting your Amazon purchase here.